Aeroporto :
LOGIN :

Iscrizione | Disclaimer

   EN    FR    IT 

 










Sommario :    VFR   VFR Marginale   IFR   IFR Intensivo   IFR Molto Intensivo
Visibilità : 
Base nubi : 
>= 8 km
>= 3000ft
5 / 8 km
1000 / 3000 ft
1500m / 5 km
500 / 1000 ft
800 / 1500m
200 / 500 ft
< 800m
< 200 ft
Simboli :   Temporali  Nebbia  Neve Forte  Precipitazioni Forti  Vento > 20 kt
SIGMETs :   Varie  Temporali  Ghiacco  Turbolenza  Onda orograficha  Ceneri Vulcaniche







- Altitudine del aeroporto : 53 ft
- Codice IATA : LBC


EDHL - Lübeck

ULTIMO METAR :
  • 181750Z 06011KT 9999 SCT035 07/02 Q1030

METARs OBSOLETI :
  • 181720Z 06013KT 9999 BKN035 07/03 Q1030
  • 181650Z 06011KT 9999 BKN035 07/03 Q1031
  • 181620Z 05009KT 9999 BKN037 07/03 Q1031
  • 181550Z 05009KT 9999 BKN033 07/03 Q1031
  • 181520Z 06007KT 9999 BKN035 06/04 Q1031

TAF TAF EDHL
Valido dal 18 a 18 ore il 18 a 21 ore UTC


181700Z 1818/1821 05008KT 9999 SCT013 BKN025
PROB30
TEMPO 1818/1821 05015G25KT 4000 -DZ BR BKN007
Nessun NOTAM noto per questo aeroporto.



MetMap, La meteo Aeronautica in un colpo d'occhio ! - Copyright ORBIFLY Dicembre 2007 - Disclaimer

ORBIFLY MET'MAP TEAM :

Programmazione e sviluppo : Alexandra Zaïnal
Concezione e sviluppo : Baudouin d'Aumeries
Co-Programmazione e sviluppo : Marc-Olivier Méhu
Supporto tecnico e logistico : Manuel Goepfert
Aiuto per la traduzione : Arnaldo La Scala

Contatto : metmap@orbifly.com




FONTI E CREDITI :

   NOAA